createdAt,value
2019-05-15T00:00:19.706Z,47.40
2019-05-15T00:02:49.211Z,46.80
2019-05-15T00:05:18.874Z,47.00
2019-05-15T00:07:48.357Z,47.90
2019-05-15T00:10:18.109Z,47.20
2019-05-15T00:12:48.638Z,47.00
2019-05-15T00:15:18.230Z,47.00
2019-05-15T00:17:48.501Z,47.50
2019-05-15T00:20:20.047Z,47.50
2019-05-15T00:22:48.405Z,47.70
2019-05-15T00:25:18.844Z,48.20
2019-05-15T00:27:49.141Z,47.80
2019-05-15T00:30:18.551Z,47.60
2019-05-15T00:32:48.701Z,47.30
2019-05-15T00:35:18.417Z,47.90
2019-05-15T00:37:49.253Z,47.90
2019-05-15T00:40:19.194Z,47.60
2019-05-15T00:42:48.760Z,48.20
2019-05-15T00:45:18.633Z,47.60
2019-05-15T00:47:48.672Z,47.70
2019-05-15T00:50:18.423Z,48.10
2019-05-15T00:52:48.448Z,48.50
2019-05-15T00:55:19.233Z,48.10
2019-05-15T00:57:48.684Z,47.60
2019-05-15T01:00:23.652Z,47.80
2019-05-15T01:02:53.042Z,48.40
2019-05-15T01:05:22.244Z,48.10
2019-05-15T01:07:51.543Z,48.00
2019-05-15T01:10:20.845Z,49.10
2019-05-15T01:12:50.251Z,48.70
2019-05-15T01:15:19.457Z,49.10
2019-05-15T01:17:49.195Z,49.10
2019-05-15T01:20:18.940Z,49.60
2019-05-15T01:22:48.477Z,49.80
2019-05-15T01:25:18.622Z,50.10
2019-05-15T01:27:49.010Z,49.80
2019-05-15T01:30:18.213Z,50.70
2019-05-15T01:32:48.517Z,51.00
2019-05-15T01:35:18.098Z,51.60
2019-05-15T01:37:48.314Z,51.50
2019-05-15T01:40:18.331Z,51.50
2019-05-15T01:42:49.848Z,52.20
2019-05-15T01:45:18.940Z,52.20
2019-05-15T01:47:48.103Z,52.70
2019-05-15T01:50:18.501Z,52.20
2019-05-15T01:52:48.013Z,52.20
2019-05-15T01:55:18.171Z,52.90
2019-05-15T01:57:48.720Z,53.20
2019-05-15T02:00:18.858Z,52.80
2019-05-15T02:02:49.199Z,53.10
2019-05-15T02:05:19.244Z,53.70
2019-05-15T02:07:48.427Z,53.40
2019-05-15T02:10:18.642Z,53.60
2019-05-15T02:12:48.176Z,53.40
2019-05-15T02:15:19.013Z,53.40
2019-05-15T02:17:48.386Z,53.80
2019-05-15T02:20:18.750Z,53.80
2019-05-15T02:22:48.536Z,53.60
2019-05-15T02:25:18.516Z,53.70
2019-05-15T02:27:49.332Z,53.70
2019-05-15T02:30:28.566Z,53.50
2019-05-15T02:32:50.100Z,53.50
2019-05-15T02:35:19.539Z,53.80
2019-05-15T02:37:49.080Z,53.50
2019-05-15T02:40:19.037Z,53.40
2019-05-15T02:42:49.255Z,53.90
2019-05-15T02:45:19.727Z,53.90
2019-05-15T02:47:49.125Z,54.40
2019-05-15T02:50:20.430Z,54.60
2019-05-15T02:52:49.688Z,54.70
2019-05-15T02:55:19.715Z,54.60
2019-05-15T02:57:49.527Z,54.70
2019-05-15T03:00:35.871Z,55.00
2019-05-15T03:02:50.391Z,55.00
2019-05-15T03:05:19.692Z,55.20
2019-05-15T03:07:49.403Z,54.70
2019-05-15T03:10:19.950Z,55.10
2019-05-15T03:12:49.579Z,55.20
2019-05-15T03:15:19.564Z,55.60
2019-05-15T03:17:49.613Z,55.10
2019-05-15T03:20:19.369Z,55.20
2019-05-15T03:22:49.229Z,55.00
2019-05-15T03:25:19.146Z,55.60
2019-05-15T03:27:49.964Z,55.20
2019-05-15T03:30:21.808Z,55.80
2019-05-15T03:32:55.496Z,55.60
2019-05-15T03:35:23.162Z,55.40
2019-05-15T03:37:53.450Z,55.80
2019-05-15T03:40:22.607Z,55.60
2019-05-15T03:42:51.893Z,55.70
2019-05-15T03:45:21.199Z,55.70
2019-05-15T03:47:50.190Z,55.90
2019-05-15T03:50:19.535Z,55.50
2019-05-15T03:52:49.657Z,55.70
2019-05-15T03:55:19.219Z,56.00
2019-05-15T03:57:49.947Z,56.00
2019-05-15T04:00:19.588Z,56.20
2019-05-15T04:02:49.591Z,57.10
2019-05-15T04:05:20.003Z,56.40
2019-05-15T04:07:49.680Z,56.40
2019-05-15T04:10:20.471Z,56.10
2019-05-15T04:12:49.865Z,56.80
2019-05-15T04:15:19.739Z,56.80
2019-05-15T04:17:49.515Z,56.50
2019-05-15T04:20:20.109Z,56.70
2019-05-15T04:22:49.543Z,57.00
2019-05-15T04:25:19.207Z,57.30
2019-05-15T04:27:49.789Z,57.50
2019-05-15T04:30:19.186Z,57.00
2019-05-15T04:32:48.885Z,56.80
2019-05-15T04:35:19.744Z,57.00
2019-05-15T04:37:49.464Z,57.00
2019-05-15T04:40:19.503Z,57.50
2019-05-15T04:42:49.797Z,57.50
2019-05-15T04:45:19.564Z,57.30
2019-05-15T04:47:49.856Z,57.40
2019-05-15T04:50:19.585Z,55.90
2019-05-15T04:52:50.097Z,54.10
2019-05-15T04:55:19.883Z,52.00
2019-05-15T04:57:50.183Z,49.10
2019-05-15T05:00:24.886Z,47.80
2019-05-15T05:02:54.237Z,46.60
2019-05-15T05:05:25.205Z,45.40
2019-05-15T05:07:54.578Z,43.70
2019-05-15T05:10:23.799Z,43.30
2019-05-15T05:12:52.978Z,42.90
2019-05-15T05:15:22.192Z,42.30
2019-05-15T05:17:51.031Z,41.30
2019-05-15T05:20:20.282Z,41.30
2019-05-15T05:22:50.930Z,40.30
2019-05-15T05:25:20.222Z,39.90
2019-05-15T05:27:49.532Z,37.70
2019-05-15T05:30:19.072Z,37.00
2019-05-15T05:32:48.786Z,36.20
2019-05-15T05:35:18.517Z,34.70
2019-05-15T05:37:48.102Z,34.00
2019-05-15T05:40:18.952Z,34.00
2019-05-15T05:42:48.391Z,32.40
2019-05-15T05:45:18.155Z,31.40
2019-05-15T05:47:48.681Z,29.90
2019-05-15T05:50:23.523Z,28.90
2019-05-15T05:52:52.682Z,27.60
2019-05-15T05:55:23.111Z,26.10
2019-05-15T05:57:52.089Z,25.80
2019-05-15T06:00:24.169Z,26.50
2019-05-15T06:02:53.559Z,26.40
2019-05-15T06:05:22.423Z,26.30
2019-05-15T06:07:51.777Z,26.50
2019-05-15T06:10:20.975Z,26.00
2019-05-15T06:12:50.169Z,26.30
2019-05-15T06:15:19.364Z,26.40
2019-05-15T06:17:48.466Z,26.40
2019-05-15T06:20:18.535Z,25.30
2019-05-15T06:22:48.016Z,24.30
2019-05-15T06:25:19.805Z,24.00
2019-05-15T06:27:48.198Z,23.40
2019-05-15T06:30:22.117Z,23.30
2019-05-15T06:33:04.375Z,22.90
2019-05-15T06:35:20.303Z,22.30
2019-05-15T06:37:49.525Z,21.50
2019-05-15T06:40:18.423Z,21.50
2019-05-15T06:42:48.334Z,21.10
2019-05-15T06:45:18.915Z,19.50
2019-05-15T06:47:48.378Z,19.90
2019-05-15T06:50:38.231Z,18.50
2019-05-15T06:53:10.410Z,19.20
2019-05-15T06:55:38.906Z,19.00
2019-05-15T06:58:09.232Z,18.90
2019-05-15T07:00:39.255Z,19.40
2019-05-15T07:03:18.094Z,18.60
2019-05-15T07:05:39.406Z,19.60
2019-05-15T07:08:09.170Z,20.40
2019-05-15T07:10:38.528Z,20.10
2019-05-15T07:13:08.857Z,19.90
2019-05-15T07:15:38.426Z,19.50
2019-05-15T07:18:08.687Z,19.10
2019-05-15T07:20:39.200Z,20.00
2019-05-15T07:23:08.939Z,19.90
2019-05-15T07:25:39.052Z,20.00
2019-05-15T07:28:08.912Z,20.10
2019-05-15T07:30:41.092Z,19.60
2019-05-15T07:33:09.395Z,20.40
2019-05-15T07:35:38.689Z,19.70
2019-05-15T07:38:08.096Z,20.10
2019-05-15T07:40:39.069Z,19.40
2019-05-15T07:43:09.389Z,19.40
2019-05-15T07:45:43.785Z,18.50
2019-05-15T07:48:09.939Z,18.50
2019-05-15T07:50:39.350Z,17.80
2019-05-15T07:53:08.896Z,17.50
2019-05-15T07:55:39.404Z,18.00
2019-05-15T07:58:08.687Z,17.90
2019-05-15T08:00:39.429Z,17.90
2019-05-15T08:03:10.374Z,18.10
2019-05-15T08:05:54.681Z,18.90
2019-05-15T08:08:10.488Z,19.80
2019-05-15T08:10:39.821Z,19.40
2019-05-15T08:13:09.062Z,18.00
2019-05-15T08:15:38.427Z,18.40
2019-05-15T08:18:09.817Z,19.00
2019-05-15T08:20:39.205Z,19.10
2019-05-15T08:23:08.869Z,18.70
2019-05-15T08:25:39.258Z,19.20
2019-05-15T08:28:09.733Z,19.30
2019-05-15T08:30:40.609Z,19.80
2019-05-15T08:33:11.948Z,19.80
2019-05-15T08:35:47.494Z,19.20
2019-05-15T08:38:15.165Z,18.40
2019-05-15T08:40:45.869Z,18.50
2019-05-15T08:43:18.128Z,17.50
2019-05-15T08:45:49.676Z,18.70
2019-05-15T08:48:20.615Z,18.50
2019-05-15T08:50:50.947Z,17.10
2019-05-15T08:53:21.058Z,17.80
2019-05-15T08:55:51.378Z,18.30
2019-05-15T08:58:20.873Z,19.20
2019-05-15T09:00:52.448Z,19.70
2019-05-15T09:03:21.132Z,18.90
2019-05-15T09:05:50.235Z,18.10
2019-05-15T09:08:19.804Z,18.30
2019-05-15T09:10:50.515Z,18.20
2019-05-15T09:13:19.953Z,18.30
2019-05-15T09:15:49.974Z,18.10
2019-05-15T09:18:20.619Z,18.00
2019-05-15T09:20:50.176Z,17.40
2019-05-15T09:23:20.015Z,17.40
2019-05-15T09:25:49.854Z,16.80
2019-05-15T09:28:19.683Z,15.40
2019-05-15T09:30:58.865Z,15.10
2019-05-15T09:33:25.501Z,14.80
2019-05-15T09:35:54.667Z,15.40
2019-05-15T09:38:24.158Z,16.50
2019-05-15T09:40:53.465Z,16.50
2019-05-15T09:43:22.765Z,17.00
2019-05-15T09:45:52.169Z,16.10
2019-05-15T09:48:22.856Z,16.00
2019-05-15T09:50:52.104Z,16.40
2019-05-15T09:53:21.507Z,15.80
2019-05-15T09:55:50.638Z,15.30
2019-05-15T09:58:21.851Z,15.30
2019-05-15T10:00:53.109Z,16.10
2019-05-15T10:03:22.104Z,16.20
2019-05-15T10:05:51.413Z,16.30
2019-05-15T10:08:21.294Z,16.80
2019-05-15T10:10:51.795Z,16.10
2019-05-15T10:13:20.975Z,16.30
2019-05-15T10:15:51.233Z,16.00
2019-05-15T10:18:23.465Z,15.90
2019-05-15T10:20:53.484Z,15.50
2019-05-15T10:23:25.182Z,15.40
2019-05-15T10:25:55.279Z,15.90
2019-05-15T10:28:24.402Z,16.60
2019-05-15T10:30:53.562Z,16.50
2019-05-15T10:33:22.835Z,16.50
2019-05-15T10:35:53.497Z,16.20
2019-05-15T10:38:22.679Z,16.10
2019-05-15T10:41:03.900Z,16.30
2019-05-15T10:43:23.021Z,15.70
2019-05-15T10:45:54.713Z,16.10
2019-05-15T10:48:22.965Z,16.10
2019-05-15T10:50:52.168Z,15.80
2019-05-15T10:53:22.529Z,15.30
2019-05-15T10:55:51.694Z,14.90
2019-05-15T10:58:22.103Z,15.90
2019-05-15T11:00:51.814Z,15.30
2019-05-15T11:03:20.806Z,16.30
2019-05-15T11:05:50.112Z,14.60
2019-05-15T11:08:19.416Z,15.50
2019-05-15T11:10:49.319Z,14.50
2019-05-15T11:13:19.370Z,14.40
2019-05-15T11:15:49.441Z,13.00
2019-05-15T11:18:18.571Z,12.90
2019-05-15T11:20:48.603Z,13.70
2019-05-15T11:23:19.881Z,13.60
2019-05-15T11:25:49.020Z,13.40
2019-05-15T11:28:18.415Z,14.60
2019-05-15T11:30:49.067Z,13.80
2019-05-15T11:33:19.075Z,15.10
2019-05-15T11:36:00.970Z,15.00
2019-05-15T11:38:19.724Z,14.90
2019-05-15T11:40:49.019Z,15.20
2019-05-15T11:43:19.791Z,14.70
2019-05-15T11:45:49.158Z,14.00
2019-05-15T11:48:20.653Z,14.30
2019-05-15T11:50:49.526Z,14.10
2019-05-15T11:53:20.668Z,14.20
2019-05-15T11:55:49.545Z,14.50
2019-05-15T11:58:19.240Z,14.20
2019-05-15T12:00:49.302Z,14.80
2019-05-15T12:03:19.131Z,15.10
2019-05-15T12:05:48.736Z,15.90
2019-05-15T12:08:18.636Z,16.30
2019-05-15T12:10:48.269Z,15.30
2019-05-15T12:13:18.919Z,15.40
2019-05-15T12:15:48.611Z,16.70
2019-05-15T12:18:18.207Z,15.70
2019-05-15T12:20:48.578Z,15.70
2019-05-15T12:23:18.051Z,16.60
2019-05-15T12:25:49.008Z,16.90
2019-05-15T12:28:19.090Z,15.90
2019-05-15T12:30:49.413Z,14.90
2019-05-15T12:33:19.892Z,14.80
2019-05-15T12:35:51.224Z,14.60
2019-05-15T12:38:25.076Z,14.00
2019-05-15T13:01:17.549Z,13.70
2019-05-15T13:03:42.020Z,14.20
2019-05-15T13:06:11.901Z,13.80
2019-05-15T13:08:42.272Z,14.00
2019-05-15T13:11:15.198Z,15.10
2019-05-15T13:13:44.676Z,15.30
2019-05-15T13:16:18.803Z,14.90
2019-05-15T13:18:49.315Z,14.80
2019-05-15T13:21:20.948Z,14.80
2019-05-15T13:23:53.191Z,14.60
2019-05-15T13:26:26.770Z,15.20
2019-05-15T13:28:54.361Z,14.90
2019-05-15T13:31:23.695Z,15.40
2019-05-15T13:33:53.505Z,15.50
2019-05-15T13:36:23.007Z,15.30
2019-05-15T13:38:54.147Z,14.50
2019-05-15T13:41:23.942Z,14.30
2019-05-15T13:43:53.248Z,13.80
2019-05-15T13:46:22.874Z,13.50
2019-05-15T13:48:52.603Z,13.00
2019-05-15T13:51:22.153Z,13.40
2019-05-15T13:53:53.614Z,13.00
2019-05-15T13:56:22.418Z,13.30
2019-05-15T13:58:52.152Z,12.90
2019-05-15T14:01:21.263Z,12.80
2019-05-15T14:03:50.428Z,12.20
2019-05-15T14:06:20.055Z,12.40
2019-05-15T14:08:48.984Z,12.60
2019-05-15T14:11:21.721Z,12.40
2019-05-15T14:13:50.020Z,13.60
2019-05-15T14:16:19.567Z,13.90
2019-05-15T14:18:48.855Z,14.30
2019-05-15T14:21:18.520Z,15.90
2019-05-15T14:23:47.978Z,17.30
2019-05-15T14:26:19.981Z,17.40
2019-05-15T14:28:49.079Z,17.60
2019-05-15T14:31:19.116Z,18.30
2019-05-15T14:33:48.864Z,19.10
2019-05-15T14:36:18.651Z,19.80
2019-05-15T14:38:48.638Z,20.00
2019-05-15T14:41:18.946Z,19.90
2019-05-15T14:43:48.573Z,19.90
2019-05-15T14:46:18.526Z,20.70
2019-05-15T14:48:49.080Z,21.20
2019-05-15T14:51:19.272Z,21.40
2019-05-15T14:53:49.020Z,21.80
2019-05-15T14:56:18.981Z,21.40
2019-05-15T14:58:49.133Z,22.00
2019-05-15T15:01:18.598Z,21.70
2019-05-15T15:03:48.845Z,21.90
2019-05-15T15:06:18.287Z,22.10
2019-05-15T15:08:48.725Z,21.90
2019-05-15T15:11:18.032Z,21.80
2019-05-15T15:13:47.379Z,21.60
2019-05-15T15:16:19.351Z,21.00
2019-05-15T15:18:48.306Z,21.20
2019-05-15T15:21:22.135Z,21.10
2019-05-15T15:23:50.835Z,20.90
2019-05-15T15:26:23.366Z,21.30
2019-05-15T15:28:54.467Z,21.50
2019-05-15T15:31:25.332Z,21.30
2019-05-15T15:33:59.519Z,21.60
2019-05-15T15:36:31.873Z,20.60
2019-05-15T15:39:03.257Z,20.90
2019-05-15T15:41:34.144Z,21.00
2019-05-15T15:44:05.145Z,21.30
2019-05-15T15:46:39.427Z,21.80
2019-05-15T15:49:08.798Z,22.60
2019-05-15T15:51:40.129Z,22.60
2019-05-15T15:54:18.663Z,22.70
2019-05-15T15:56:48.705Z,22.30
2019-05-15T15:59:18.949Z,22.40
2019-05-15T16:01:50.618Z,22.20
2019-05-15T16:04:21.471Z,22.00
2019-05-15T16:06:52.183Z,22.20
2019-05-15T16:09:22.782Z,22.50
2019-05-15T16:11:53.283Z,22.70
2019-05-15T16:14:24.439Z,22.80
2019-05-15T16:16:54.905Z,22.40
2019-05-15T16:19:28.363Z,22.50
2019-05-15T16:21:59.511Z,22.60
2019-05-15T16:24:38.212Z,22.50
2019-05-15T16:27:09.619Z,22.40
2019-05-15T16:29:39.375Z,21.40
2019-05-15T16:32:08.954Z,21.50
2019-05-15T16:34:39.394Z,21.60
2019-05-15T16:37:09.064Z,21.90
2019-05-15T16:39:38.362Z,22.30
2019-05-15T16:42:07.820Z,22.70
2019-05-15T16:44:38.414Z,22.40
2019-05-15T16:47:08.577Z,22.40
2019-05-15T16:49:39.090Z,23.00
2019-05-15T16:52:09.317Z,23.10
2019-05-15T16:54:38.736Z,23.00
2019-05-15T16:57:09.918Z,23.00
2019-05-15T16:59:40.427Z,23.00
2019-05-15T17:02:13.535Z,23.20
2019-05-15T17:04:44.432Z,24.00
2019-05-15T17:07:15.099Z,24.30
2019-05-15T17:09:47.954Z,24.30
2019-05-15T17:12:22.710Z,24.20
2019-05-15T17:14:58.091Z,24.10
2019-05-15T17:17:28.624Z,23.90
2019-05-15T17:19:58.130Z,23.80
2019-05-15T17:22:30.042Z,24.10
2019-05-15T17:25:02.732Z,24.20
2019-05-15T17:27:32.812Z,24.50
2019-05-15T17:30:03.245Z,25.10
2019-05-15T17:32:33.466Z,24.30
2019-05-15T17:35:03.481Z,24.50
2019-05-15T17:37:33.559Z,24.40
2019-05-15T17:40:04.637Z,24.50
2019-05-15T17:42:38.513Z,24.50
2019-05-15T17:45:09.246Z,24.60
2019-05-15T17:47:40.765Z,24.90
2019-05-15T17:50:12.808Z,24.80
2019-05-15T17:52:43.340Z,24.80
2019-05-15T17:55:13.673Z,25.10
2019-05-15T17:57:42.758Z,25.10
2019-05-15T18:00:13.021Z,25.30
2019-05-15T18:02:41.971Z,25.40
2019-05-15T18:05:11.614Z,25.60
2019-05-15T18:07:41.002Z,25.60
2019-05-15T18:10:10.566Z,25.80
2019-05-15T18:12:39.415Z,26.00
2019-05-15T18:15:09.391Z,26.10
2019-05-15T18:17:39.314Z,26.10
2019-05-15T18:20:10.397Z,26.30
2019-05-15T18:22:39.602Z,26.30
2019-05-15T18:25:09.301Z,26.50
2019-05-15T18:27:38.997Z,26.40
2019-05-15T18:30:09.529Z,26.50
2019-05-15T18:32:39.112Z,26.50
2019-05-15T18:35:09.066Z,26.70
2019-05-15T18:37:39.442Z,26.90
2019-05-15T18:40:10.285Z,26.90
2019-05-15T18:42:39.721Z,26.90
2019-05-15T18:45:09.535Z,27.10
2019-05-15T18:47:39.090Z,27.30
2019-05-15T18:50:13.041Z,27.50
2019-05-15T18:52:39.617Z,27.50
2019-05-15T18:55:09.114Z,27.70
2019-05-15T18:57:38.746Z,27.80
2019-05-15T19:00:09.659Z,27.80
2019-05-15T19:02:39.215Z,27.70
2019-05-15T19:05:08.991Z,27.60
2019-05-15T19:07:38.562Z,27.80
2019-05-15T19:10:09.479Z,27.90
2019-05-15T19:12:38.760Z,28.00
2019-05-15T19:15:09.724Z,28.20
2019-05-15T19:17:39.181Z,28.70
2019-05-15T19:20:09.521Z,28.90
2019-05-15T19:22:41.002Z,29.00
2019-05-15T19:25:10.383Z,28.80
2019-05-15T19:27:39.624Z,28.90
2019-05-15T19:30:09.045Z,29.10
2019-05-15T19:32:38.726Z,29.10
2019-05-15T19:35:09.453Z,29.50
2019-05-15T19:37:38.925Z,29.40
2019-05-15T19:40:09.693Z,29.50
2019-05-15T19:42:38.863Z,29.50
2019-05-15T19:45:09.804Z,29.90
2019-05-15T19:47:39.109Z,30.00
2019-05-15T19:50:10.057Z,30.00
2019-05-15T19:52:39.745Z,30.00
2019-05-15T19:55:10.295Z,30.10
2019-05-15T19:57:40.312Z,30.50
2019-05-15T20:00:09.897Z,30.30
2019-05-15T20:02:39.745Z,30.50
2019-05-15T20:05:09.859Z,30.70
2019-05-15T20:07:39.387Z,30.90
2019-05-15T20:10:09.182Z,31.10
2019-05-15T20:12:39.218Z,31.10
2019-05-15T20:15:12.045Z,31.00
2019-05-15T20:17:41.169Z,31.20
2019-05-15T20:20:10.579Z,31.40
2019-05-15T20:22:40.259Z,31.70
2019-05-15T20:25:10.723Z,32.10
2019-05-15T20:27:39.532Z,31.80
2019-05-15T20:30:09.434Z,31.60
2019-05-15T20:32:39.011Z,32.10
2019-05-15T20:35:08.944Z,32.40
2019-05-15T20:37:39.069Z,32.40
2019-05-15T20:40:09.509Z,32.70
2019-05-15T20:42:38.816Z,33.30
2019-05-15T20:45:12.313Z,33.50
2019-05-15T20:47:42.384Z,33.50
2019-05-15T20:50:13.941Z,33.30
2019-05-15T20:52:42.895Z,33.20
2019-05-15T20:55:11.787Z,33.20
2019-05-15T20:57:41.152Z,33.20
2019-05-15T21:00:11.810Z,33.40
2019-05-15T21:02:41.658Z,33.90
2019-05-15T21:05:11.447Z,34.00
2019-05-15T21:07:43.274Z,34.30
2019-05-15T21:10:11.774Z,34.10
2019-05-15T21:12:41.605Z,34.50
2019-05-15T21:15:11.533Z,34.60
2019-05-15T21:17:42.177Z,34.80
2019-05-15T21:20:11.541Z,34.90
2019-05-15T21:22:40.607Z,35.10
2019-05-15T21:25:10.883Z,35.20
2019-05-15T21:27:43.128Z,35.20
2019-05-15T21:30:11.441Z,35.20
2019-05-15T21:32:40.266Z,35.60
2019-05-15T21:35:09.671Z,35.90
2019-05-15T21:37:39.215Z,36.20
2019-05-15T21:40:09.611Z,35.80
2019-05-15T21:42:41.729Z,36.00
2019-05-15T21:45:14.373Z,36.30
2019-05-15T21:47:40.283Z,36.20
2019-05-15T21:50:10.768Z,37.20
2019-05-15T21:52:40.939Z,36.20
2019-05-15T21:55:19.179Z,36.20
2019-05-15T21:57:53.392Z,36.50
2019-05-15T22:00:30.918Z,36.40
2019-05-15T22:03:02.626Z,36.50
2019-05-15T22:05:38.632Z,36.90
2019-05-15T22:08:08.880Z,37.00
2019-05-15T22:11:00.801Z,37.20
2019-05-15T22:13:31.589Z,37.30
2019-05-15T22:16:00.608Z,37.90
2019-05-15T22:18:30.638Z,37.60
2019-05-15T22:20:59.662Z,37.80
2019-05-15T22:23:28.737Z,37.90
2019-05-15T22:25:58.481Z,37.90
2019-05-15T22:28:28.353Z,38.30
2019-05-15T22:30:58.387Z,37.90
2019-05-15T22:33:28.409Z,38.10
2019-05-15T22:35:59.264Z,37.90
2019-05-15T22:38:28.825Z,38.00
2019-05-15T22:40:58.134Z,38.30
2019-05-15T22:43:28.800Z,38.60
2019-05-15T22:45:58.798Z,38.30
2019-05-15T22:48:28.673Z,38.30
2019-05-15T22:50:58.384Z,38.60
2019-05-15T22:53:28.895Z,38.80
2019-05-15T22:55:58.821Z,39.10
2019-05-15T22:58:28.244Z,39.40
2019-05-15T23:00:59.691Z,39.10
2019-05-15T23:03:28.276Z,39.50
2019-05-15T23:05:59.135Z,39.20
2019-05-15T23:08:29.077Z,39.20
2019-05-15T23:10:58.816Z,39.20
2019-05-15T23:13:29.623Z,39.70
2019-05-15T23:15:58.799Z,39.70
2019-05-15T23:18:28.009Z,39.90
2019-05-15T23:20:59.307Z,39.80
2019-05-15T23:23:29.689Z,40.00
2019-05-15T23:25:59.080Z,40.60
2019-05-15T23:28:28.383Z,40.40
2019-05-15T23:30:57.681Z,40.80
2019-05-15T23:33:28.275Z,40.40
2019-05-15T23:35:58.690Z,40.40
2019-05-15T23:38:28.031Z,40.70
2019-05-15T23:40:58.884Z,40.70
2019-05-15T23:43:28.748Z,40.80
2019-05-15T23:45:58.915Z,40.90
2019-05-15T23:48:28.487Z,41.30
2019-05-15T23:50:59.157Z,41.50
2019-05-15T23:53:28.968Z,41.40
2019-05-15T23:55:58.750Z,41.60
2019-05-15T23:58:29.149Z,42.00
